Jamestown, Canada
Current Conditions -  °F | °C
As of 8:00 PM on Saturday 22 Nov 2014 (Local Time) from CYQX Reporting Station
Scattered Clouds Scattered Clouds  
Wind Chill: 11°   Ceiling: Unl
Heat Index: 25°   Visibility: 20mi
Dew Point: 14°   Wind: 17mph
Humidity: 64%   Direction: 260°W
Pressure: 29.64"   Gusts: 29mph
Location:  48.43°N, 53.8°W
Report Text: CYQX 222300Z 26015G25KT 20SM FEW022 SCT047 M04/M10 A2964 RMK SC2SC1 SLP046
Loading
Personal Weather Stations






























Interactive Weather Map New forecast layout! Learn more

10-Day Weather Forecast

Advertisements
Track Severe Weather on mobile